sensor_id;sensor_type;location;lat;lon;timestamp;pressure;altitude;pressure_sealevel;temperature;humidity
47530;BME280;33272;51.922;7.730;2023-05-07T00:02:29;146217.75;;;14.98;100.00
47530;BME280;33272;51.922;7.730;2023-05-07T00:04:56;146212.63;;;14.96;100.00
47530;BME280;33272;51.922;7.730;2023-05-07T00:07:23;146206.28;;;14.94;100.00
47530;BME280;33272;51.922;7.730;2023-05-07T00:09:50;146201.22;;;14.92;100.00
47530;BME280;33272;51.922;7.730;2023-05-07T00:12:17;146194.84;;;14.89;100.00
47530;BME280;33272;51.922;7.730;2023-05-07T00:14:44;146191.00;;;14.88;100.00
47530;BME280;33272;51.922;7.730;2023-05-07T00:17:12;146192.31;;;14.88;100.00
47530;BME280;33272;51.922;7.730;2023-05-07T00:19:40;146191.00;;;14.88;100.00
47530;BME280;33272;51.922;7.730;2023-05-07T00:22:07;146192.31;;;14.88;100.00
47530;BME280;33272;51.922;7.730;2023-05-07T00:24:35;146188.47;;;14.87;100.00
47530;BME280;33272;51.922;7.730;2023-05-07T00:27:02;146189.75;;;14.87;100.00
47530;BME280;33272;51.922;7.730;2023-05-07T00:29:29;146184.69;;;14.85;100.00
47530;BME280;33272;51.922;7.730;2023-05-07T00:31:56;146182.13;;;14.84;100.00
47530;BME280;33272;51.922;7.730;2023-05-07T00:34:23;146182.13;;;14.84;100.00
47530;BME280;33272;51.922;7.730;2023-05-07T00:36:51;146183.38;;;14.84;100.00
47530;BME280;33272;51.922;7.730;2023-05-07T00:39:18;146180.84;;;14.83;100.00
47530;BME280;33272;51.922;7.730;2023-05-07T00:41:46;146182.13;;;14.84;100.00
47530;BME280;33272;51.922;7.730;2023-05-07T00:44:13;146185.94;;;14.86;100.00
47530;BME280;33272;51.922;7.730;2023-05-07T00:46:41;146187.22;;;14.86;100.00
47530;BME280;33272;51.922;7.730;2023-05-07T00:49:07;146183.38;;;14.84;100.00
47530;BME280;33272;51.922;7.730;2023-05-07T00:51:35;146189.75;;;14.87;100.00
47530;BME280;33272;51.922;7.730;2023-05-07T00:54:03;146185.94;;;14.86;100.00
47530;BME280;33272;51.922;7.730;2023-05-07T00:56:32;146187.22;;;14.86;100.00
47530;BME280;33272;51.922;7.730;2023-05-07T00:58:59;146188.47;;;14.87;100.00
47530;BME280;33272;51.922;7.730;2023-05-07T01:01:27;146188.47;;;14.87;100.00
47530;BME280;33272;51.922;7.730;2023-05-07T01:03:54;146191.00;;;14.88;100.00
47530;BME280;33272;51.922;7.730;2023-05-07T01:06:21;146191.00;;;14.88;100.00
47530;BME280;33272;51.922;7.730;2023-05-07T01:08:51;146182.13;;;14.84;100.00
47530;BME280;33272;51.922;7.730;2023-05-07T01:11:20;146180.84;;;14.83;100.00
47530;BME280;33272;51.922;7.730;2023-05-07T01:13:47;146183.38;;;14.84;100.00
47530;BME280;33272;51.922;7.730;2023-05-07T01:16:15;146180.84;;;14.83;100.00
47530;BME280;33272;51.922;7.730;2023-05-07T01:18:42;146175.75;;;14.81;100.00
47530;BME280;33272;51.922;7.730;2023-05-07T01:21:11;146177.06;;;14.82;100.00
47530;BME280;33272;51.922;7.730;2023-05-07T01:23:40;146170.69;;;14.79;100.00
47530;BME280;33272;51.922;7.730;2023-05-07T01:26:08;146165.59;;;14.77;100.00
47530;BME280;33272;51.922;7.730;2023-05-07T01:28:35;146161.78;;;14.76;100.00
47530;BME280;33272;51.922;7.730;2023-05-07T01:31:03;146157.94;;;14.74;100.00
47530;BME280;33272;51.922;7.730;2023-05-07T01:33:34;146152.91;;;14.72;100.00
47530;BME280;33272;51.922;7.730;2023-05-07T01:36:01;146146.53;;;14.70;100.00
47530;BME280;33272;51.922;7.730;2023-05-07T01:38:32;146142.69;;;14.68;100.00
47530;BME280;33272;51.922;7.730;2023-05-07T01:41:01;146138.91;;;14.67;100.00
47530;BME280;33272;51.922;7.730;2023-05-07T01:43:28;146126.16;;;14.62;100.00
47530;BME280;33272;51.922;7.730;2023-05-07T01:45:57;146123.63;;;14.60;100.00
47530;BME280;33272;51.922;7.730;2023-05-07T01:48:26;146118.53;;;14.58;100.00
47530;BME280;33272;51.922;7.730;2023-05-07T01:50:53;146114.75;;;14.57;100.00
47530;BME280;33272;51.922;7.730;2023-05-07T01:53:21;146105.84;;;14.53;100.00
47530;BME280;33272;51.922;7.730;2023-05-07T01:55:48;146100.75;;;14.51;100.00
47530;BME280;33272;51.922;7.730;2023-05-07T01:58:16;146091.78;;;14.48;100.00
47530;BME280;33272;51.922;7.730;2023-05-07T02:00:43;146084.16;;;14.45;100.00
47530;BME280;33272;51.922;7.730;2023-05-07T02:03:10;146081.59;;;14.44;100.00
47530;BME280;33272;51.922;7.730;2023-05-07T02:05:37;146077.81;;;14.42;100.00
47530;BME280;33272;51.922;7.730;2023-05-07T02:08:04;146072.69;;;14.40;100.00
47530;BME280;33272;51.922;7.730;2023-05-07T02:10:31;146070.16;;;14.39;100.00
47530;BME280;33272;51.922;7.730;2023-05-07T02:12:58;146063.81;;;14.36;100.00
47530;BME280;33272;51.922;7.730;2023-05-07T02:15:28;146061.28;;;14.35;100.00
47530;BME280;33272;51.922;7.730;2023-05-07T02:17:59;146053.66;;;14.32;100.00
47530;BME280;33272;51.922;7.730;2023-05-07T02:20:27;146051.13;;;14.31;100.00
47530;BME280;33272;51.922;7.730;2023-05-07T02:22:54;146052.38;;;14.32;100.00
47530;BME280;33272;51.922;7.730;2023-05-07T02:25:21;146049.81;;;14.31;100.00
47530;BME280;33272;51.922;7.730;2023-05-07T02:27:48;146052.38;;;14.32;100.00
47530;BME280;33272;51.922;7.730;2023-05-07T02:30:15;146052.38;;;14.32;100.00
47530;BME280;33272;51.922;7.730;2023-05-07T02:32:43;146048.53;;;14.30;100.00
47530;BME280;33272;51.922;7.730;2023-05-07T02:35:11;146048.53;;;14.30;100.00
47530;BME280;33272;51.922;7.730;2023-05-07T02:37:38;146048.53;;;14.30;100.00
47530;BME280;33272;51.922;7.730;2023-05-07T02:40:06;146048.53;;;14.30;100.00
47530;BME280;33272;51.922;7.730;2023-05-07T02:42:34;146040.91;;;14.27;100.00
47530;BME280;33272;51.922;7.730;2023-05-07T02:45:01;146038.38;;;14.26;100.00
47530;BME280;33272;51.922;7.730;2023-05-07T02:47:28;146030.75;;;14.23;100.00
47530;BME280;33272;51.922;7.730;2023-05-07T02:49:56;146026.94;;;14.22;100.00
47530;BME280;33272;51.922;7.730;2023-05-07T02:52:23;146023.13;;;14.20;100.00
47530;BME280;33272;51.922;7.730;2023-05-07T02:54:51;146018.03;;;14.18;100.00
47530;BME280;33272;51.922;7.730;2023-05-07T02:57:18;146016.78;;;14.18;100.00
47530;BME280;33272;51.922;7.730;2023-05-07T02:59:45;146014.25;;;14.17;100.00
47530;BME280;33272;51.922;7.730;2023-05-07T03:02:12;146009.13;;;14.14;100.00
47530;BME280;33272;51.922;7.730;2023-05-07T03:04:40;146006.63;;;14.13;100.00
47530;BME280;33272;51.922;7.730;2023-05-07T03:07:08;146002.78;;;14.12;100.00
47530;BME280;33272;51.922;7.730;2023-05-07T03:09:35;145993.88;;;14.08;100.00
47530;BME280;33272;51.922;7.730;2023-05-07T03:12:02;145987.53;;;14.06;100.00
47530;BME280;33272;51.922;7.730;2023-05-07T03:14:29;145985.00;;;14.05;100.00
47530;BME280;33272;51.922;7.730;2023-05-07T03:16:56;145974.84;;;14.01;100.00
47530;BME280;33272;51.922;7.730;2023-05-07T03:19:23;145968.47;;;13.98;100.00
47530;BME280;33272;51.922;7.730;2023-05-07T03:21:50;145955.75;;;13.93;100.00
47530;BME280;33272;51.922;7.730;2023-05-07T03:24:19;145954.47;;;13.93;100.00
47530;BME280;33272;51.922;7.730;2023-05-07T03:26:46;145950.69;;;13.91;100.00
47530;BME280;33272;51.922;7.730;2023-05-07T03:29:13;145941.81;;;13.87;100.00
47530;BME280;33272;51.922;7.730;2023-05-07T03:31:40;145940.50;;;13.87;100.00
47530;BME280;33272;51.922;7.730;2023-05-07T03:34:07;145940.50;;;13.87;100.00
47530;BME280;33272;51.922;7.730;2023-05-07T03:36:34;145940.50;;;13.87;100.00
47530;BME280;33272;51.922;7.730;2023-05-07T03:39:01;145936.72;;;13.85;100.00
47530;BME280;33272;51.922;7.730;2023-05-07T03:41:29;145936.72;;;13.85;100.00
47530;BME280;33272;51.922;7.730;2023-05-07T03:43:56;145932.88;;;13.84;100.00
47530;BME280;33272;51.922;7.730;2023-05-07T03:46:23;145935.44;;;13.85;100.00
47530;BME280;33272;51.922;7.730;2023-05-07T03:48:51;145930.34;;;13.83;100.00
47530;BME280;33272;51.922;7.730;2023-05-07T03:51:19;145929.06;;;13.82;100.00
47530;BME280;33272;51.922;7.730;2023-05-07T03:53:46;145932.88;;;13.84;100.00
47530;BME280;33272;51.922;7.730;2023-05-07T03:56:13;145930.34;;;13.83;100.00
47530;BME280;33272;51.922;7.730;2023-05-07T03:58:41;145931.59;;;13.83;100.00
47530;BME280;33272;51.922;7.730;2023-05-07T04:01:08;145929.06;;;13.82;100.00
47530;BME280;33272;51.922;7.730;2023-05-07T04:03:35;145921.44;;;13.79;100.00
47530;BME280;33272;51.922;7.730;2023-05-07T04:06:02;145923.97;;;13.80;100.00
47530;BME280;33272;51.922;7.730;2023-05-07T04:08:29;145923.97;;;13.80;100.00
47530;BME280;33272;51.922;7.730;2023-05-07T04:11:03;145910.03;;;13.75;100.00
47530;BME280;33272;51.922;7.730;2023-05-07T04:13:30;145911.31;;;13.75;100.00
47530;BME280;33272;51.922;7.730;2023-05-07T04:16:00;145906.19;;;13.73;100.00
47530;BME280;33272;51.922;7.730;2023-05-07T04:18:28;145904.94;;;13.73;100.00
47530;BME280;33272;51.922;7.730;2023-05-07T04:20:55;145893.47;;;13.68;100.00
47530;BME280;33272;51.922;7.730;2023-05-07T04:23:22;145893.47;;;13.68;100.00
47530;BME280;33272;51.922;7.730;2023-05-07T04:25:50;145894.78;;;13.68;100.00
47530;BME280;33272;51.922;7.730;2023-05-07T04:28:17;145898.56;;;13.70;100.00
47530;BME280;33272;51.922;7.730;2023-05-07T04:30:44;145894.78;;;13.68;100.00
47530;BME280;33272;51.922;7.730;2023-05-07T04:33:14;145894.78;;;13.68;100.00
47530;BME280;33272;51.922;7.730;2023-05-07T04:35:42;145898.56;;;13.70;100.00
47530;BME280;33272;51.922;7.730;2023-05-07T04:38:09;145899.84;;;13.71;100.00
47530;BME280;33272;51.922;7.730;2023-05-07T04:40:36;145913.81;;;13.76;100.00
47530;BME280;33272;51.922;7.730;2023-05-07T04:43:04;145926.56;;;13.81;100.00
47530;BME280;33272;51.922;7.730;2023-05-07T04:45:33;145946.84;;;13.89;100.00
47530;BME280;33272;51.922;7.730;2023-05-07T04:48:00;145948.13;;;13.90;100.00
47530;BME280;33272;51.922;7.730;2023-05-07T04:50:29;145963.38;;;13.96;100.00
47530;BME280;33272;51.922;7.730;2023-05-07T04:52:56;145971.00;;;13.99;100.00
47530;BME280;33272;51.922;7.730;2023-05-07T04:55:24;145971.00;;;13.99;100.00
47530;BME280;33272;51.922;7.730;2023-05-07T04:57:52;145976.09;;;14.01;100.00
47530;BME280;33272;51.922;7.730;2023-05-07T05:00:19;145973.56;;;14.00;100.00
47530;BME280;33272;51.922;7.730;2023-05-07T05:02:46;145972.31;;;14.00;100.00
47530;BME280;33272;51.922;7.730;2023-05-07T05:05:13;145985.00;;;14.05;100.00
47530;BME280;33272;51.922;7.730;2023-05-07T05:07:41;145996.47;;;14.09;100.00
47530;BME280;33272;51.922;7.730;2023-05-07T05:10:09;146005.34;;;14.13;100.00
47530;BME280;33272;51.922;7.730;2023-05-07T05:12:36;146011.72;;;14.16;100.00
47530;BME280;33272;51.922;7.730;2023-05-07T05:15:05;146025.66;;;14.21;100.00
47530;BME280;33272;51.922;7.730;2023-05-07T05:17:32;146048.53;;;14.30;100.00
47530;BME280;33272;51.922;7.730;2023-05-07T05:20:00;146058.75;;;14.34;100.00
47530;BME280;33272;51.922;7.730;2023-05-07T05:22:27;146072.69;;;14.40;100.00
47530;BME280;33272;51.922;7.730;2023-05-07T05:24:56;146093.06;;;14.48;100.00
47530;BME280;33272;51.922;7.730;2023-05-07T05:27:25;146118.53;;;14.58;100.00
47530;BME280;33272;51.922;7.730;2023-05-07T05:29:52;146127.44;;;14.62;100.00
47530;BME280;33272;51.922;7.730;2023-05-07T05:32:19;146149.06;;;14.71;100.00
47530;BME280;33272;51.922;7.730;2023-05-07T05:34:46;146177.06;;;14.82;100.00
47530;BME280;33272;51.922;7.730;2023-05-07T05:37:13;146211.38;;;14.96;100.00
47530;BME280;33272;51.922;7.730;2023-05-07T05:39:40;146222.81;;;15.00;100.00
47530;BME280;33272;51.922;7.730;2023-05-07T05:42:08;146231.75;;;15.04;100.00
47530;BME280;33272;51.922;7.730;2023-05-07T05:44:35;146226.66;;;15.02;100.00
47530;BME280;33272;51.922;7.730;2023-05-07T05:47:03;146231.75;;;15.04;100.00
47530;BME280;33272;51.922;7.730;2023-05-07T05:49:30;146249.53;;;15.11;100.00
47530;BME280;33272;51.922;7.730;2023-05-07T05:51:57;146249.53;;;15.11;100.00
47530;BME280;33272;51.922;7.730;2023-05-07T05:54:24;146260.97;;;15.16;100.00
47530;BME280;33272;51.922;7.730;2023-05-07T05:56:51;146281.34;;;15.24;100.00
47530;BME280;33272;51.922;7.730;2023-05-07T05:59:19;146283.88;;;15.25;100.00
47530;BME280;33272;51.922;7.730;2023-05-07T06:01:46;146282.63;;;15.24;100.00
47530;BME280;33272;51.922;7.730;2023-05-07T06:04:13;146292.78;;;15.28;100.00
47530;BME280;33272;51.922;7.730;2023-05-07T06:06:41;146296.63;;;15.30;100.00
47530;BME280;33272;51.922;7.730;2023-05-07T06:09:07;146296.63;;;15.30;100.00
47530;BME280;33272;51.922;7.730;2023-05-07T06:11:35;146301.72;;;15.32;100.00
47530;BME280;33272;51.922;7.730;2023-05-07T06:14:02;146299.16;;;15.31;100.00
47530;BME280;33272;51.922;7.730;2023-05-07T06:16:30;146286.47;;;15.26;100.00
47530;BME280;33272;51.922;7.730;2023-05-07T06:18:57;146282.63;;;15.24;100.00
47530;BME280;33272;51.922;7.730;2023-05-07T06:21:24;146274.97;;;15.21;100.00
47530;BME280;33272;51.922;7.730;2023-05-07T06:23:51;146294.09;;;15.29;100.00
47530;BME280;33272;51.922;7.730;2023-05-07T06:26:20;146306.78;;;15.34;100.00
47530;BME280;33272;51.922;7.730;2023-05-07T06:28:47;146323.31;;;15.41;100.00
47530;BME280;33272;51.922;7.730;2023-05-07T06:31:16;146327.16;;;15.42;100.00
47530;BME280;33272;51.922;7.730;2023-05-07T06:33:45;146342.44;;;15.48;100.00
47530;BME280;33272;51.922;7.730;2023-05-07T06:36:12;146337.31;;;15.46;100.00
47530;BME280;33272;51.922;7.730;2023-05-07T06:38:39;146350.06;;;15.51;100.00
47530;BME280;33272;51.922;7.730;2023-05-07T06:41:06;146376.78;;;15.62;100.00
47530;BME280;33272;51.922;7.730;2023-05-07T06:43:33;146404.84;;;15.73;100.00
47530;BME280;33272;51.922;7.730;2023-05-07T06:46:00;146420.13;;;15.80;100.00
47530;BME280;33272;51.922;7.730;2023-05-07T06:48:27;146431.56;;;15.84;100.00
47530;BME280;33272;51.922;7.730;2023-05-07T06:50:56;146445.56;;;15.90;100.00
47530;BME280;33272;51.922;7.730;2023-05-07T06:53:23;146459.59;;;15.95;100.00
47530;BME280;33272;51.922;7.730;2023-05-07T06:55:51;146482.50;;;16.05;100.00
47530;BME280;33272;51.922;7.730;2023-05-07T06:58:18;146510.47;;;16.16;100.00
47530;BME280;33272;51.922;7.730;2023-05-07T07:00:45;146543.56;;;16.29;100.00
47530;BME280;33272;51.922;7.730;2023-05-07T07:03:12;146553.78;;;16.33;100.00
47530;BME280;33272;51.922;7.730;2023-05-07T07:05:40;146561.44;;;16.36;100.00
47530;BME280;33272;51.922;7.730;2023-05-07T07:08:10;146556.31;;;16.34;100.00
47530;BME280;33272;51.922;7.730;2023-05-07T07:10:37;146560.13;;;16.36;100.00
47530;BME280;33272;51.922;7.730;2023-05-07T07:13:04;146556.31;;;16.34;100.00
47530;BME280;33272;51.922;7.730;2023-05-07T07:15:31;146565.22;;;16.38;100.00
47530;BME280;33272;51.922;7.730;2023-05-07T07:17:58;146553.78;;;16.33;100.00
47530;BME280;33272;51.922;7.730;2023-05-07T07:20:25;146558.84;;;16.35;100.00
47530;BME280;33272;51.922;7.730;2023-05-07T07:22:52;146551.22;;;16.32;100.00
47530;BME280;33272;51.922;7.730;2023-05-07T07:25:20;146544.84;;;16.30;100.00
47530;BME280;33272;51.922;7.730;2023-05-07T07:27:47;146566.50;;;16.38;100.00
47530;BME280;33272;51.922;7.730;2023-05-07T07:30:14;146566.50;;;16.38;100.00
47530;BME280;33272;51.922;7.730;2023-05-07T07:32:42;146553.78;;;16.33;100.00
47530;BME280;33272;51.922;7.730;2023-05-07T07:35:09;146566.50;;;16.38;100.00
47530;BME280;33272;51.922;7.730;2023-05-07T07:37:36;146563.97;;;16.37;100.00
47530;BME280;33272;51.922;7.730;2023-05-07T07:40:06;146570.34;;;16.40;100.00
47530;BME280;33272;51.922;7.730;2023-05-07T07:42:35;146586.88;;;16.47;100.00
47530;BME280;33272;51.922;7.730;2023-05-07T07:45:02;146628.91;;;16.63;100.00
47530;BME280;33272;51.922;7.730;2023-05-07T07:47:30;146683.72;;;16.85;100.00
47530;BME280;33272;51.922;7.730;2023-05-07T07:49:57;146720.69;;;17.00;100.00
47530;BME280;33272;51.922;7.730;2023-05-07T07:52:24;146763.97;;;17.18;100.00
47530;BME280;33272;51.922;7.730;2023-05-07T07:54:51;146806.06;;;17.34;100.00
47530;BME280;33272;51.922;7.730;2023-05-07T07:57:18;146825.16;;;17.42;100.00
47530;BME280;33272;51.922;7.730;2023-05-07T07:59:46;146865.94;;;17.58;100.00
47530;BME280;33272;51.922;7.730;2023-05-07T08:02:13;146919.53;;;17.80;100.00
47530;BME280;33272;51.922;7.730;2023-05-07T08:04:40;146957.78;;;17.95;100.00
47530;BME280;33272;51.922;7.730;2023-05-07T08:07:09;147004.97;;;18.14;100.00
47530;BME280;33272;51.922;7.730;2023-05-07T08:09:36;147030.44;;;18.24;100.00
47530;BME280;33272;51.922;7.730;2023-05-07T08:12:04;147052.13;;;18.33;100.00
47530;BME280;33272;51.922;7.730;2023-05-07T08:14:31;147041.94;;;18.29;100.00
47530;BME280;33272;51.922;7.730;2023-05-07T08:17:00;147033.03;;;18.25;100.00
47530;BME280;33272;51.922;7.730;2023-05-07T08:19:27;147035.56;;;18.26;100.00
47530;BME280;33272;51.922;7.730;2023-05-07T08:21:54;147035.56;;;18.26;100.00
47530;BME280;33272;51.922;7.730;2023-05-07T08:24:21;147039.38;;;18.28;100.00
47530;BME280;33272;51.922;7.730;2023-05-07T08:26:48;147071.25;;;18.41;100.00
47530;BME280;33272;51.922;7.730;2023-05-07T08:29:16;147053.41;;;18.34;100.00
47530;BME280;33272;51.922;7.730;2023-05-07T08:31:43;147054.69;;;18.34;100.00
47530;BME280;33272;51.922;7.730;2023-05-07T08:34:11;147033.03;;;18.25;100.00
47530;BME280;33272;51.922;7.730;2023-05-07T08:36:38;147053.41;;;18.34;100.00
47530;BME280;33272;51.922;7.730;2023-05-07T08:39:07;147069.97;;;18.40;100.00
47530;BME280;33272;51.922;7.730;2023-05-07T08:41:35;147041.94;;;18.29;100.00
47530;BME280;33272;51.922;7.730;2023-05-07T08:44:03;147064.91;;;18.38;100.00
47530;BME280;33272;51.922;7.730;2023-05-07T08:46:33;147084.03;;;18.46;100.00
47530;BME280;33272;51.922;7.730;2023-05-07T08:49:00;147117.19;;;18.59;100.00
47530;BME280;33272;51.922;7.730;2023-05-07T08:51:29;147091.69;;;18.49;100.00
47530;BME280;33272;51.922;7.730;2023-05-07T08:53:57;147122.28;;;18.61;100.00
47530;BME280;33272;51.922;7.730;2023-05-07T08:56:24;147164.41;;;18.78;100.00
47530;BME280;33272;51.922;7.730;2023-05-07T08:58:51;147188.66;;;18.88;100.00
47530;BME280;33272;51.922;7.730;2023-05-07T09:01:22;147186.13;;;18.87;100.00
47530;BME280;33272;51.922;7.730;2023-05-07T09:03:50;147210.38;;;18.96;100.00
47530;BME280;33272;51.922;7.730;2023-05-07T09:06:18;147228.22;;;19.04;100.00
47530;BME280;33272;51.922;7.730;2023-05-07T09:08:51;147216.75;;;18.99;100.00
47530;BME280;33272;51.922;7.730;2023-05-07T09:11:22;147196.31;;;18.91;100.00
47530;BME280;33272;51.922;7.730;2023-05-07T09:13:54;147218.03;;;18.99;100.00
47530;BME280;33272;51.922;7.730;2023-05-07T09:16:22;147232.06;;;19.05;100.00
47530;BME280;33272;51.922;7.730;2023-05-07T09:18:52;147233.34;;;19.06;100.00
47530;BME280;33272;51.922;7.730;2023-05-07T09:21:20;147257.56;;;19.15;100.00
47530;BME280;33272;51.922;7.730;2023-05-07T09:23:50;147284.34;;;19.26;100.00
47530;BME280;33272;51.922;7.730;2023-05-07T09:26:18;147304.78;;;19.34;100.00
47530;BME280;33272;51.922;7.730;2023-05-07T09:28:45;147325.22;;;19.42;100.00
47530;BME280;33272;51.922;7.730;2023-05-07T09:31:13;147372.47;;;19.61;100.00
47530;BME280;33272;51.922;7.730;2023-05-07T09:33:40;147422.28;;;19.81;100.00
47530;BME280;33272;51.922;7.730;2023-05-07T09:36:09;147444.00;;;19.90;100.00
47530;BME280;33272;51.922;7.730;2023-05-07T09:38:37;147467.00;;;19.99;100.00
47530;BME280;33272;51.922;7.730;2023-05-07T09:41:08;147444.00;;;19.90;100.00
47530;BME280;33272;51.922;7.730;2023-05-07T09:43:37;147427.41;;;19.83;100.00
47530;BME280;33272;51.922;7.730;2023-05-07T09:46:08;147449.09;;;19.92;100.00
47530;BME280;33272;51.922;7.730;2023-05-07T09:48:40;147484.84;;;20.06;100.00
47530;BME280;33272;51.922;7.730;2023-05-07T09:51:18;147524.44;;;20.22;100.00
47530;BME280;33272;51.922;7.730;2023-05-07T09:53:45;147525.72;;;20.23;100.00
47530;BME280;33272;51.922;7.730;2023-05-07T09:56:15;147505.31;;;20.14;100.00
47530;BME280;33272;51.922;7.730;2023-05-07T09:58:43;147506.56;;;20.15;100.00
47530;BME280;33272;51.922;7.730;2023-05-07T10:01:12;147512.97;;;20.18;100.00
47530;BME280;33272;51.922;7.730;2023-05-07T10:03:41;147549.97;;;20.32;100.00
47530;BME280;33272;51.922;7.730;2023-05-07T10:06:09;147571.72;;;20.41;100.00
47530;BME280;33272;51.922;7.730;2023-05-07T10:08:37;147571.72;;;20.41;100.00
47530;BME280;33272;51.922;7.730;2023-05-07T10:11:04;147572.97;;;20.42;100.00
47530;BME280;33272;51.922;7.730;2023-05-07T10:13:34;147534.66;;;20.26;100.00
47530;BME280;33272;51.922;7.730;2023-05-07T10:16:04;147515.50;;;20.19;100.00
47530;BME280;33272;51.922;7.730;2023-05-07T10:18:32;147472.06;;;20.01;100.00
47530;BME280;33272;51.922;7.730;2023-05-07T10:21:11;147472.06;;;20.01;100.00
47530;BME280;33272;51.922;7.730;2023-05-07T10:23:46;147440.16;;;19.88;100.00
47530;BME280;33272;51.922;7.730;2023-05-07T10:26:16;147444.00;;;19.90;100.00
47530;BME280;33272;51.922;7.730;2023-05-07T10:28:53;147449.09;;;19.92;100.00
47530;BME280;33272;51.922;7.730;2023-05-07T10:31:52;147458.06;;;19.96;100.00
47530;BME280;33272;51.922;7.730;2023-05-07T10:34:24;147473.34;;;20.02;100.00
47530;BME280;33272;51.922;7.730;2023-05-07T10:36:53;147510.38;;;20.17;100.00
47530;BME280;33272;51.922;7.730;2023-05-07T10:39:21;147553.84;;;20.34;100.00
47530;BME280;33272;51.922;7.730;2023-05-07T10:41:49;147579.38;;;20.44;100.00
47530;BME280;33272;51.922;7.730;2023-05-07T10:44:27;147546.16;;;20.31;99.53
47530;BME280;33272;51.922;7.730;2023-05-07T10:47:08;147561.50;;;20.37;100.00
47530;BME280;33272;51.922;7.730;2023-05-07T10:49:37;147584.50;;;20.46;100.00
47530;BME280;33272;51.922;7.730;2023-05-07T10:52:17;147597.28;;;20.51;100.00
47530;BME280;33272;51.922;7.730;2023-05-07T10:54:46;147640.75;;;20.69;100.00
47530;BME280;33272;51.922;7.730;2023-05-07T10:57:35;147659.88;;;20.76;99.27
47530;BME280;33272;51.922;7.730;2023-05-07T11:00:43;147684.16;;;20.86;100.00
47530;BME280;33272;51.922;7.730;2023-05-07T11:03:10;147728.91;;;21.04;100.00
47530;BME280;33272;51.922;7.730;2023-05-07T11:05:38;147754.44;;;21.14;100.00
47530;BME280;33272;51.922;7.730;2023-05-07T11:08:06;147735.31;;;21.06;99.92
47530;BME280;33272;51.922;7.730;2023-05-07T11:10:50;147727.63;;;21.03;98.29
47530;BME280;33272;51.922;7.730;2023-05-07T11:13:40;147728.91;;;21.04;99.81
47530;BME280;33272;51.922;7.730;2023-05-07T11:16:17;147736.56;;;21.07;99.65
47530;BME280;33272;51.922;7.730;2023-05-07T11:18:48;147772.34;;;21.21;99.57
47530;BME280;33272;51.922;7.730;2023-05-07T11:21:37;147812.00;;;21.37;99.10
47530;BME280;33272;51.922;7.730;2023-05-07T11:24:05;147860.63;;;21.57;99.00
47530;BME280;33272;51.922;7.730;2023-05-07T11:26:44;147859.28;;;21.56;97.34
47530;BME280;33272;51.922;7.730;2023-05-07T11:29:13;147818.41;;;21.40;97.88
47530;BME280;33272;51.922;7.730;2023-05-07T11:31:42;147814.59;;;21.38;97.73
47530;BME280;33272;51.922;7.730;2023-05-07T11:34:09;147806.91;;;21.35;98.43
47530;BME280;33272;51.922;7.730;2023-05-07T11:36:42;147846.53;;;21.51;97.86
47530;BME280;33272;51.922;7.730;2023-05-07T11:39:27;147883.63;;;21.66;96.89
47530;BME280;33272;51.922;7.730;2023-05-07T11:41:55;147886.19;;;21.67;97.25
47530;BME280;33272;51.922;7.730;2023-05-07T11:44:22;147898.94;;;21.72;96.66
47530;BME280;33272;51.922;7.730;2023-05-07T11:46:50;147898.94;;;21.72;96.23
47530;BME280;33272;51.922;7.730;2023-05-07T11:49:17;147882.31;;;21.65;95.80
47530;BME280;33272;51.922;7.730;2023-05-07T11:51:45;147897.66;;;21.71;96.37
47530;BME280;33272;51.922;7.730;2023-05-07T11:54:16;147892.56;;;21.69;95.29
47530;BME280;33272;51.922;7.730;2023-05-07T11:56:44;147911.72;;;21.77;95.33
47530;BME280;33272;51.922;7.730;2023-05-07T11:59:17;147933.47;;;21.86;95.02
47530;BME280;33272;51.922;7.730;2023-05-07T12:01:46;147964.19;;;21.98;94.77
47530;BME280;33272;51.922;7.730;2023-05-07T12:04:19;147975.66;;;22.03;93.94
47530;BME280;33272;51.922;7.730;2023-05-07T12:06:47;147971.84;;;22.01;93.86
47530;BME280;33272;51.922;7.730;2023-05-07T12:09:14;147956.50;;;21.95;93.19
47530;BME280;33272;51.922;7.730;2023-05-07T12:11:46;147961.59;;;21.97;91.49
47530;BME280;33272;51.922;7.730;2023-05-07T12:14:13;147956.50;;;21.95;93.36
47530;BME280;33272;51.922;7.730;2023-05-07T12:16:41;147955.22;;;21.94;93.55
47530;BME280;33272;51.922;7.730;2023-05-07T12:19:09;147975.66;;;22.03;93.84
47530;BME280;33272;51.922;7.730;2023-05-07T12:21:39;147979.53;;;22.04;93.13
47530;BME280;33272;51.922;7.730;2023-05-07T12:24:08;147980.78;;;22.05;93.20
47530;BME280;33272;51.922;7.730;2023-05-07T12:26:38;147996.16;;;22.11;93.30
47530;BME280;33272;51.922;7.730;2023-05-07T12:29:06;147975.66;;;22.03;92.60
47530;BME280;33272;51.922;7.730;2023-05-07T12:31:33;147951.38;;;21.93;93.55
47530;BME280;33272;51.922;7.730;2023-05-07T12:34:00;147914.28;;;21.78;92.98
47530;BME280;33272;51.922;7.730;2023-05-07T12:36:36;147886.19;;;21.67;92.63
47530;BME280;33272;51.922;7.730;2023-05-07T12:39:06;147881.03;;;21.65;93.53
47530;BME280;33272;51.922;7.730;2023-05-07T12:41:51;147884.91;;;21.66;92.35
47530;BME280;33272;51.922;7.730;2023-05-07T12:44:21;147875.97;;;21.63;93.53
47530;BME280;33272;51.922;7.730;2023-05-07T12:46:48;147907.91;;;21.75;93.57
47530;BME280;33272;51.922;7.730;2023-05-07T12:49:15;147929.63;;;21.84;93.22